sensor_id;sensor_type;location;lat;lon;timestamp;P1;durP1;ratioP1;P2;durP2;ratioP2
6269;SDS011;3168;51.684;6.954;2023-07-31T00:01:57;0.80;;;0.80;;
6269;SDS011;3168;51.684;6.954;2023-07-31T00:04:23;0.83;;;0.83;;
6269;SDS011;3168;51.684;6.954;2023-07-31T00:06:49;0.80;;;0.80;;
6269;SDS011;3168;51.684;6.954;2023-07-31T00:09:15;1.20;;;1.10;;
6269;SDS011;3168;51.684;6.954;2023-07-31T00:11:40;1.17;;;1.17;;
6269;SDS011;3168;51.684;6.954;2023-07-31T00:14:06;3.53;;;1.23;;
6269;SDS011;3168;51.684;6.954;2023-07-31T00:16:32;1.30;;;1.17;;
6269;SDS011;3168;51.684;6.954;2023-07-31T00:18:58;1.37;;;1.37;;
6269;SDS011;3168;51.684;6.954;2023-07-31T00:21:23;0.90;;;0.90;;
6269;SDS011;3168;51.684;6.954;2023-07-31T00:23:49;0.90;;;0.90;;
6269;SDS011;3168;51.684;6.954;2023-07-31T00:26:15;1.30;;;1.30;;
6269;SDS011;3168;51.684;6.954;2023-07-31T00:28:41;2.80;;;1.10;;
6269;SDS011;3168;51.684;6.954;2023-07-31T00:31:06;1.00;;;1.00;;
6269;SDS011;3168;51.684;6.954;2023-07-31T00:33:34;0.80;;;0.80;;
6269;SDS011;3168;51.684;6.954;2023-07-31T00:35:58;1.10;;;1.10;;
6269;SDS011;3168;51.684;6.954;2023-07-31T00:38:24;0.80;;;0.80;;
6269;SDS011;3168;51.684;6.954;2023-07-31T00:40:50;1.83;;;1.10;;
6269;SDS011;3168;51.684;6.954;2023-07-31T00:43:16;1.17;;;1.07;;
6269;SDS011;3168;51.684;6.954;2023-07-31T00:45:43;1.37;;;1.30;;
6269;SDS011;3168;51.684;6.954;2023-07-31T00:48:08;5.62;;;1.98;;
6269;SDS011;3168;51.684;6.954;2023-07-31T00:50:34;6.73;;;2.27;;
6269;SDS011;3168;51.684;6.954;2023-07-31T00:53:00;6.13;;;1.57;;
6269;SDS011;3168;51.684;6.954;2023-07-31T00:55:26;2.43;;;2.20;;
6269;SDS011;3168;51.684;6.954;2023-07-31T00:57:52;2.00;;;1.90;;
6269;SDS011;3168;51.684;6.954;2023-07-31T01:00:18;6.80;;;3.80;;
6269;SDS011;3168;51.684;6.954;2023-07-31T01:02:43;6.07;;;3.40;;
6269;SDS011;3168;51.684;6.954;2023-07-31T01:05:09;12.23;;;4.30;;
6269;SDS011;3168;51.684;6.954;2023-07-31T01:07:39;8.40;;;4.07;;
6269;SDS011;3168;51.684;6.954;2023-07-31T01:10:15;7.97;;;4.37;;
6269;SDS011;3168;51.684;6.954;2023-07-31T01:12:40;5.47;;;4.40;;
6269;SDS011;3168;51.684;6.954;2023-07-31T01:15:06;4.83;;;4.33;;
6269;SDS011;3168;51.684;6.954;2023-07-31T01:17:32;7.90;;;4.40;;
6269;SDS011;3168;51.684;6.954;2023-07-31T01:19:59;5.83;;;4.30;;
6269;SDS011;3168;51.684;6.954;2023-07-31T01:22:31;8.33;;;4.00;;
6269;SDS011;3168;51.684;6.954;2023-07-31T01:25:25;8.53;;;4.77;;
6269;SDS011;3168;51.684;6.954;2023-07-31T01:27:59;3.80;;;3.43;;
6269;SDS011;3168;51.684;6.954;2023-07-31T01:30:25;13.63;;;4.47;;
6269;SDS011;3168;51.684;6.954;2023-07-31T01:32:50;10.93;;;3.50;;
6269;SDS011;3168;51.684;6.954;2023-07-31T01:35:16;4.77;;;4.37;;
6269;SDS011;3168;51.684;6.954;2023-07-31T01:37:42;11.63;;;3.23;;
6269;SDS011;3168;51.684;6.954;2023-07-31T01:40:08;11.93;;;5.07;;
6269;SDS011;3168;51.684;6.954;2023-07-31T01:42:34;4.57;;;4.17;;
6269;SDS011;3168;51.684;6.954;2023-07-31T01:45:00;3.40;;;3.23;;
6269;SDS011;3168;51.684;6.954;2023-07-31T01:47:26;14.50;;;4.20;;
6269;SDS011;3168;51.684;6.954;2023-07-31T01:49:52;6.20;;;3.73;;
6269;SDS011;3168;51.684;6.954;2023-07-31T01:52:18;7.80;;;3.80;;
6269;SDS011;3168;51.684;6.954;2023-07-31T01:54:44;14.93;;;3.67;;
6269;SDS011;3168;51.684;6.954;2023-07-31T01:57:09;5.90;;;4.03;;
6269;SDS011;3168;51.684;6.954;2023-07-31T01:59:35;15.63;;;4.00;;
6269;SDS011;3168;51.684;6.954;2023-07-31T02:02:01;5.80;;;3.40;;
6269;SDS011;3168;51.684;6.954;2023-07-31T02:04:27;6.70;;;2.70;;
6269;SDS011;3168;51.684;6.954;2023-07-31T02:06:52;4.90;;;3.13;;
6269;SDS011;3168;51.684;6.954;2023-07-31T02:09:18;17.23;;;4.40;;
6269;SDS011;3168;51.684;6.954;2023-07-31T02:11:45;6.00;;;3.43;;
6269;SDS011;3168;51.684;6.954;2023-07-31T02:14:11;11.23;;;3.40;;
6269;SDS011;3168;51.684;6.954;2023-07-31T02:16:36;3.80;;;3.60;;
6269;SDS011;3168;51.684;6.954;2023-07-31T02:19:02;12.17;;;3.33;;
6269;SDS011;3168;51.684;6.954;2023-07-31T02:21:28;4.03;;;2.60;;
6269;SDS011;3168;51.684;6.954;2023-07-31T02:23:54;9.77;;;3.20;;
6269;SDS011;3168;51.684;6.954;2023-07-31T02:26:20;3.13;;;2.90;;
6269;SDS011;3168;51.684;6.954;2023-07-31T02:28:46;9.70;;;3.30;;
6269;SDS011;3168;51.684;6.954;2023-07-31T02:31:11;17.77;;;3.00;;
6269;SDS011;3168;51.684;6.954;2023-07-31T02:33:37;3.33;;;2.43;;
6269;SDS011;3168;51.684;6.954;2023-07-31T02:36:03;5.40;;;2.73;;
6269;SDS011;3168;51.684;6.954;2023-07-31T02:38:29;11.30;;;2.90;;
6269;SDS011;3168;51.684;6.954;2023-07-31T02:40:55;3.03;;;2.80;;
6269;SDS011;3168;51.684;6.954;2023-07-31T02:43:22;7.60;;;3.47;;
6269;SDS011;3168;51.684;6.954;2023-07-31T02:45:51;3.40;;;3.13;;
6269;SDS011;3168;51.684;6.954;2023-07-31T02:48:16;7.50;;;3.40;;
6269;SDS011;3168;51.684;6.954;2023-07-31T02:50:43;3.37;;;2.20;;
6269;SDS011;3168;51.684;6.954;2023-07-31T02:53:09;3.60;;;2.90;;
6269;SDS011;3168;51.684;6.954;2023-07-31T02:55:35;3.57;;;2.80;;
6269;SDS011;3168;51.684;6.954;2023-07-31T02:58:02;12.67;;;2.57;;
6269;SDS011;3168;51.684;6.954;2023-07-31T03:00:28;7.10;;;3.03;;
6269;SDS011;3168;51.684;6.954;2023-07-31T03:02:54;11.87;;;4.03;;
6269;SDS011;3168;51.684;6.954;2023-07-31T03:05:20;3.53;;;3.00;;
6269;SDS011;3168;51.684;6.954;2023-07-31T03:07:46;4.07;;;3.10;;
6269;SDS011;3168;51.684;6.954;2023-07-31T03:10:12;3.53;;;3.23;;
6269;SDS011;3168;51.684;6.954;2023-07-31T03:12:37;5.97;;;3.00;;
6269;SDS011;3168;51.684;6.954;2023-07-31T03:15:03;3.57;;;2.60;;
6269;SDS011;3168;51.684;6.954;2023-07-31T03:17:30;6.00;;;2.87;;
6269;SDS011;3168;51.684;6.954;2023-07-31T03:19:55;4.17;;;2.40;;
6269;SDS011;3168;51.684;6.954;2023-07-31T03:22:21;3.07;;;2.57;;
6269;SDS011;3168;51.684;6.954;2023-07-31T03:24:47;5.63;;;2.90;;
6269;SDS011;3168;51.684;6.954;2023-07-31T03:27:13;6.60;;;3.67;;
6269;SDS011;3168;51.684;6.954;2023-07-31T03:29:38;6.30;;;3.07;;
6269;SDS011;3168;51.684;6.954;2023-07-31T03:32:04;11.13;;;2.60;;
6269;SDS011;3168;51.684;6.954;2023-07-31T03:34:30;7.40;;;3.33;;
6269;SDS011;3168;51.684;6.954;2023-07-31T03:36:56;4.40;;;3.13;;
6269;SDS011;3168;51.684;6.954;2023-07-31T03:39:22;5.70;;;3.80;;
6269;SDS011;3168;51.684;6.954;2023-07-31T03:41:48;4.40;;;3.03;;
6269;SDS011;3168;51.684;6.954;2023-07-31T03:44:15;2.53;;;2.27;;
6269;SDS011;3168;51.684;6.954;2023-07-31T03:46:41;9.77;;;2.70;;
6269;SDS011;3168;51.684;6.954;2023-07-31T03:49:07;2.50;;;2.30;;
6269;SDS011;3168;51.684;6.954;2023-07-31T03:51:32;2.97;;;2.37;;
6269;SDS011;3168;51.684;6.954;2023-07-31T03:53:58;4.90;;;2.90;;
6269;SDS011;3168;51.684;6.954;2023-07-31T03:56:24;5.17;;;2.90;;
6269;SDS011;3168;51.684;6.954;2023-07-31T03:58:50;3.30;;;1.93;;
6269;SDS011;3168;51.684;6.954;2023-07-31T04:01:15;3.17;;;2.40;;
6269;SDS011;3168;51.684;6.954;2023-07-31T04:03:41;23.17;;;3.63;;
6269;SDS011;3168;51.684;6.954;2023-07-31T04:06:07;2.70;;;2.37;;
6269;SDS011;3168;51.684;6.954;2023-07-31T04:08:33;9.77;;;3.27;;
6269;SDS011;3168;51.684;6.954;2023-07-31T04:10:59;5.57;;;3.07;;
6269;SDS011;3168;51.684;6.954;2023-07-31T04:13:24;6.40;;;2.57;;
6269;SDS011;3168;51.684;6.954;2023-07-31T04:15:50;4.10;;;2.47;;
6269;SDS011;3168;51.684;6.954;2023-07-31T04:18:16;14.73;;;2.70;;
6269;SDS011;3168;51.684;6.954;2023-07-31T04:20:43;5.70;;;2.90;;
6269;SDS011;3168;51.684;6.954;2023-07-31T04:23:08;9.87;;;2.93;;
6269;SDS011;3168;51.684;6.954;2023-07-31T04:25:34;7.00;;;3.00;;
6269;SDS011;3168;51.684;6.954;2023-07-31T04:28:01;6.73;;;2.60;;
6269;SDS011;3168;51.684;6.954;2023-07-31T04:30:26;2.33;;;2.10;;
6269;SDS011;3168;51.684;6.954;2023-07-31T04:32:52;10.47;;;2.77;;
6269;SDS011;3168;51.684;6.954;2023-07-31T04:35:18;20.33;;;3.50;;
6269;SDS011;3168;51.684;6.954;2023-07-31T04:37:44;2.60;;;2.40;;
6269;SDS011;3168;51.684;6.954;2023-07-31T04:40:10;2.10;;;2.00;;
6269;SDS011;3168;51.684;6.954;2023-07-31T04:42:36;6.30;;;3.50;;
6269;SDS011;3168;51.684;6.954;2023-07-31T04:45:02;5.37;;;3.00;;
6269;SDS011;3168;51.684;6.954;2023-07-31T04:47:29;2.90;;;2.27;;
6269;SDS011;3168;51.684;6.954;2023-07-31T04:49:55;5.20;;;3.15;;
6269;SDS011;3168;51.684;6.954;2023-07-31T04:52:21;3.43;;;3.13;;
6269;SDS011;3168;51.684;6.954;2023-07-31T04:54:46;5.73;;;2.47;;
6269;SDS011;3168;51.684;6.954;2023-07-31T04:57:12;2.30;;;2.20;;
6269;SDS011;3168;51.684;6.954;2023-07-31T04:59:38;5.63;;;2.90;;
6269;SDS011;3168;51.684;6.954;2023-07-31T05:02:04;5.90;;;2.63;;
6269;SDS011;3168;51.684;6.954;2023-07-31T05:04:30;6.50;;;3.30;;
6269;SDS011;3168;51.684;6.954;2023-07-31T05:06:56;11.57;;;3.10;;
6269;SDS011;3168;51.684;6.954;2023-07-31T05:09:22;4.00;;;3.00;;
6269;SDS011;3168;51.684;6.954;2023-07-31T05:11:48;2.10;;;1.93;;
6269;SDS011;3168;51.684;6.954;2023-07-31T05:14:13;2.30;;;2.20;;
6269;SDS011;3168;51.684;6.954;2023-07-31T05:16:39;11.07;;;3.03;;
6269;SDS011;3168;51.684;6.954;2023-07-31T05:19:05;2.83;;;2.73;;
6269;SDS011;3168;51.684;6.954;2023-07-31T05:21:31;7.60;;;2.40;;
6269;SDS011;3168;51.684;6.954;2023-07-31T05:23:57;6.50;;;3.20;;
6269;SDS011;3168;51.684;6.954;2023-07-31T05:26:23;6.00;;;2.50;;
6269;SDS011;3168;51.684;6.954;2023-07-31T05:28:49;5.13;;;2.20;;
6269;SDS011;3168;51.684;6.954;2023-07-31T05:31:14;4.50;;;2.53;;
6269;SDS011;3168;51.684;6.954;2023-07-31T05:33:40;3.20;;;2.83;;
6269;SDS011;3168;51.684;6.954;2023-07-31T05:36:06;3.17;;;2.87;;
6269;SDS011;3168;51.684;6.954;2023-07-31T05:38:32;3.10;;;2.80;;
6269;SDS011;3168;51.684;6.954;2023-07-31T05:40:58;2.33;;;2.13;;
6269;SDS011;3168;51.684;6.954;2023-07-31T05:43:23;1.90;;;1.90;;
6269;SDS011;3168;51.684;6.954;2023-07-31T05:45:50;2.70;;;2.60;;
6269;SDS011;3168;51.684;6.954;2023-07-31T05:48:15;11.90;;;3.17;;
6269;SDS011;3168;51.684;6.954;2023-07-31T05:50:41;4.45;;;2.50;;
6269;SDS011;3168;51.684;6.954;2023-07-31T05:53:07;4.50;;;3.73;;
6269;SDS011;3168;51.684;6.954;2023-07-31T05:55:32;4.60;;;2.13;;
6269;SDS011;3168;51.684;6.954;2023-07-31T05:57:58;6.07;;;2.87;;
6269;SDS011;3168;51.684;6.954;2023-07-31T06:00:24;5.20;;;2.77;;
6269;SDS011;3168;51.684;6.954;2023-07-31T06:02:50;2.50;;;2.37;;
6269;SDS011;3168;51.684;6.954;2023-07-31T06:05:16;3.43;;;2.30;;
6269;SDS011;3168;51.684;6.954;2023-07-31T06:07:41;4.73;;;3.37;;
6269;SDS011;3168;51.684;6.954;2023-07-31T06:10:07;3.63;;;2.70;;
6269;SDS011;3168;51.684;6.954;2023-07-31T06:12:34;5.63;;;3.27;;
6269;SDS011;3168;51.684;6.954;2023-07-31T06:15:00;2.97;;;2.77;;
6269;SDS011;3168;51.684;6.954;2023-07-31T06:17:26;6.30;;;2.40;;
6269;SDS011;3168;51.684;6.954;2023-07-31T06:19:51;2.70;;;2.50;;
6269;SDS011;3168;51.684;6.954;2023-07-31T06:22:17;2.50;;;2.30;;
6269;SDS011;3168;51.684;6.954;2023-07-31T06:24:44;2.90;;;2.60;;
6269;SDS011;3168;51.684;6.954;2023-07-31T06:27:10;2.17;;;2.00;;
6269;SDS011;3168;51.684;6.954;2023-07-31T06:29:35;2.63;;;2.43;;
6269;SDS011;3168;51.684;6.954;2023-07-31T06:32:01;9.23;;;3.60;;
6269;SDS011;3168;51.684;6.954;2023-07-31T06:34:27;3.17;;;2.97;;
6269;SDS011;3168;51.684;6.954;2023-07-31T06:36:53;2.70;;;2.50;;
6269;SDS011;3168;51.684;6.954;2023-07-31T06:39:19;4.67;;;2.90;;
6269;SDS011;3168;51.684;6.954;2023-07-31T06:41:45;3.67;;;3.30;;
6269;SDS011;3168;51.684;6.954;2023-07-31T06:44:10;3.13;;;2.93;;
6269;SDS011;3168;51.684;6.954;2023-07-31T06:46:36;3.80;;;3.60;;
6269;SDS011;3168;51.684;6.954;2023-07-31T06:49:02;10.27;;;3.20;;
6269;SDS011;3168;51.684;6.954;2023-07-31T06:51:28;5.87;;;3.33;;
6269;SDS011;3168;51.684;6.954;2023-07-31T06:53:54;3.83;;;3.00;;
6269;SDS011;3168;51.684;6.954;2023-07-31T06:56:20;3.60;;;3.30;;
6269;SDS011;3168;51.684;6.954;2023-07-31T06:58:45;5.23;;;3.20;;
6269;SDS011;3168;51.684;6.954;2023-07-31T07:01:11;7.70;;;3.13;;
6269;SDS011;3168;51.684;6.954;2023-07-31T07:03:37;4.10;;;3.80;;
6269;SDS011;3168;51.684;6.954;2023-07-31T07:06:03;3.37;;;3.17;;
6269;SDS011;3168;51.684;6.954;2023-07-31T07:08:28;3.93;;;3.47;;
6269;SDS011;3168;51.684;6.954;2023-07-31T07:10:54;3.53;;;3.10;;
6269;SDS011;3168;51.684;6.954;2023-07-31T07:13:21;2.73;;;2.60;;
6269;SDS011;3168;51.684;6.954;2023-07-31T07:15:47;4.50;;;4.20;;
6269;SDS011;3168;51.684;6.954;2023-07-31T07:18:13;3.80;;;3.50;;
6269;SDS011;3168;51.684;6.954;2023-07-31T07:20:38;4.13;;;3.73;;
6269;SDS011;3168;51.684;6.954;2023-07-31T07:23:04;7.10;;;2.70;;
6269;SDS011;3168;51.684;6.954;2023-07-31T07:25:30;2.97;;;2.83;;
6269;SDS011;3168;51.684;6.954;2023-07-31T07:27:56;3.07;;;2.97;;
6269;SDS011;3168;51.684;6.954;2023-07-31T07:30:22;3.87;;;3.60;;
6269;SDS011;3168;51.684;6.954;2023-07-31T07:32:48;2.77;;;2.67;;
6269;SDS011;3168;51.684;6.954;2023-07-31T07:35:13;5.00;;;3.50;;
6269;SDS011;3168;51.684;6.954;2023-07-31T07:37:39;3.20;;;2.80;;
6269;SDS011;3168;51.684;6.954;2023-07-31T07:40:05;3.00;;;2.90;;
6269;SDS011;3168;51.684;6.954;2023-07-31T07:42:32;2.47;;;2.37;;
6269;SDS011;3168;51.684;6.954;2023-07-31T07:44:58;3.73;;;2.37;;
6269;SDS011;3168;51.684;6.954;2023-07-31T07:47:24;2.43;;;2.33;;
6269;SDS011;3168;51.684;6.954;2023-07-31T07:49:50;2.80;;;2.57;;
6269;SDS011;3168;51.684;6.954;2023-07-31T07:52:15;2.77;;;2.67;;
6269;SDS011;3168;51.684;6.954;2023-07-31T07:54:41;4.93;;;2.83;;
6269;SDS011;3168;51.684;6.954;2023-07-31T07:57:07;4.43;;;2.60;;
6269;SDS011;3168;51.684;6.954;2023-07-31T07:59:33;3.13;;;2.93;;
6269;SDS011;3168;51.684;6.954;2023-07-31T08:01:59;1.80;;;1.80;;
6269;SDS011;3168;51.684;6.954;2023-07-31T08:04:24;2.57;;;2.43;;
6269;SDS011;3168;51.684;6.954;2023-07-31T08:06:50;4.73;;;2.60;;
6269;SDS011;3168;51.684;6.954;2023-07-31T08:09:16;6.03;;;3.03;;
6269;SDS011;3168;51.684;6.954;2023-07-31T08:11:42;2.27;;;2.17;;
6269;SDS011;3168;51.684;6.954;2023-07-31T08:14:08;2.67;;;2.57;;
6269;SDS011;3168;51.684;6.954;2023-07-31T08:16:33;2.40;;;2.30;;
6269;SDS011;3168;51.684;6.954;2023-07-31T08:18:59;2.67;;;2.47;;
6269;SDS011;3168;51.684;6.954;2023-07-31T08:21:25;1.87;;;1.87;;
6269;SDS011;3168;51.684;6.954;2023-07-31T08:23:51;2.73;;;2.20;;
6269;SDS011;3168;51.684;6.954;2023-07-31T08:26:17;6.60;;;2.10;;
6269;SDS011;3168;51.684;6.954;2023-07-31T08:28:42;4.77;;;2.53;;
6269;SDS011;3168;51.684;6.954;2023-07-31T08:31:08;1.83;;;1.83;;
6269;SDS011;3168;51.684;6.954;2023-07-31T08:33:34;5.33;;;2.20;;
6269;SDS011;3168;51.684;6.954;2023-07-31T08:36:00;2.23;;;2.13;;
6269;SDS011;3168;51.684;6.954;2023-07-31T08:38:25;1.70;;;1.60;;
6269;SDS011;3168;51.684;6.954;2023-07-31T08:40:51;2.80;;;2.17;;
6269;SDS011;3168;51.684;6.954;2023-07-31T08:43:18;3.00;;;2.80;;
6269;SDS011;3168;51.684;6.954;2023-07-31T08:45:43;5.20;;;3.00;;
6269;SDS011;3168;51.684;6.954;2023-07-31T08:48:09;2.53;;;2.43;;
6269;SDS011;3168;51.684;6.954;2023-07-31T08:50:34;2.10;;;1.90;;
6269;SDS011;3168;51.684;6.954;2023-07-31T08:53:00;2.50;;;2.40;;
6269;SDS011;3168;51.684;6.954;2023-07-31T08:55:26;2.03;;;1.90;;
6269;SDS011;3168;51.684;6.954;2023-07-31T08:57:52;2.03;;;1.93;;
6269;SDS011;3168;51.684;6.954;2023-07-31T09:00:19;5.70;;;2.43;;
6269;SDS011;3168;51.684;6.954;2023-07-31T09:02:46;2.47;;;1.60;;
6269;SDS011;3168;51.684;6.954;2023-07-31T09:05:11;1.70;;;1.60;;
6269;SDS011;3168;51.684;6.954;2023-07-31T09:07:37;2.40;;;1.83;;
6269;SDS011;3168;51.684;6.954;2023-07-31T09:10:03;1.63;;;1.53;;
6269;SDS011;3168;51.684;6.954;2023-07-31T09:12:29;2.80;;;2.70;;
6269;SDS011;3168;51.684;6.954;2023-07-31T09:14:55;2.70;;;2.25;;
6269;SDS011;3168;51.684;6.954;2023-07-31T09:19:55;2.37;;;2.17;;
6269;SDS011;3168;51.684;6.954;2023-07-31T09:22:31;2.30;;;2.20;;
6269;SDS011;3168;51.684;6.954;2023-07-31T09:24:57;3.70;;;2.10;;
6269;SDS011;3168;51.684;6.954;2023-07-31T09:27:23;1.70;;;1.60;;
6269;SDS011;3168;51.684;6.954;2023-07-31T09:29:58;2.80;;;2.10;;
6269;SDS011;3168;51.684;6.954;2023-07-31T09:32:15;2.60;;;2.50;;
6269;SDS011;3168;51.684;6.954;2023-07-31T09:34:41;2.37;;;2.27;;
6269;SDS011;3168;51.684;6.954;2023-07-31T09:37:06;1.70;;;1.13;;
6269;SDS011;3168;51.684;6.954;2023-07-31T09:39:32;6.63;;;2.30;;
6269;SDS011;3168;51.684;6.954;2023-07-31T09:41:58;2.20;;;2.10;;
6269;SDS011;3168;51.684;6.954;2023-07-31T09:44:37;13.40;;;2.07;;
6269;SDS011;3168;51.684;6.954;2023-07-31T09:47:04;11.73;;;2.27;;
6269;SDS011;3168;51.684;6.954;2023-07-31T09:49:30;2.00;;;1.90;;
6269;SDS011;3168;51.684;6.954;2023-07-31T09:51:56;1.90;;;1.77;;
6269;SDS011;3168;51.684;6.954;2023-07-31T09:54:22;2.30;;;2.20;;
6269;SDS011;3168;51.684;6.954;2023-07-31T09:56:48;1.80;;;1.70;;
6269;SDS011;3168;51.684;6.954;2023-07-31T09:59:14;1.60;;;1.60;;
6269;SDS011;3168;51.684;6.954;2023-07-31T10:01:39;2.00;;;2.00;;
6269;SDS011;3168;51.684;6.954;2023-07-31T10:04:05;2.80;;;2.00;;
6269;SDS011;3168;51.684;6.954;2023-07-31T10:06:31;2.30;;;2.20;;
6269;SDS011;3168;51.684;6.954;2023-07-31T10:08:56;1.90;;;1.80;;
6269;SDS011;3168;51.684;6.954;2023-07-31T10:11:23;3.23;;;2.53;;
6269;SDS011;3168;51.684;6.954;2023-07-31T10:13:48;1.77;;;1.67;;
6269;SDS011;3168;51.684;6.954;2023-07-31T10:16:14;2.00;;;1.90;;
6269;SDS011;3168;51.684;6.954;2023-07-31T10:18:40;2.43;;;1.77;;
6269;SDS011;3168;51.684;6.954;2023-07-31T10:21:06;2.17;;;2.07;;
6269;SDS011;3168;51.684;6.954;2023-07-31T10:23:32;2.20;;;2.10;;
6269;SDS011;3168;51.684;6.954;2023-07-31T10:25:58;1.37;;;1.27;;
6269;SDS011;3168;51.684;6.954;2023-07-31T10:28:24;2.90;;;2.37;;
6269;SDS011;3168;51.684;6.954;2023-07-31T10:30:49;1.50;;;1.50;;
6269;SDS011;3168;51.684;6.954;2023-07-31T10:33:15;2.17;;;2.07;;
6269;SDS011;3168;51.684;6.954;2023-07-31T10:35:42;1.90;;;1.80;;
6269;SDS011;3168;51.684;6.954;2023-07-31T10:38:09;1.47;;;1.47;;
6269;SDS011;3168;51.684;6.954;2023-07-31T10:40:34;2.93;;;1.90;;
6269;SDS011;3168;51.684;6.954;2023-07-31T10:43:00;2.80;;;2.43;;
6269;SDS011;3168;51.684;6.954;2023-07-31T10:45:34;2.90;;;2.70;;
6269;SDS011;3168;51.684;6.954;2023-07-31T10:48:01;2.27;;;2.17;;
6269;SDS011;3168;51.684;6.954;2023-07-31T10:50:26;3.63;;;2.43;;
6269;SDS011;3168;51.684;6.954;2023-07-31T10:52:53;2.77;;;2.10;;
6269;SDS011;3168;51.684;6.954;2023-07-31T10:55:25;2.13;;;2.03;;
6269;SDS011;3168;51.684;6.954;2023-07-31T10:57:53;2.17;;;2.00;;
6269;SDS011;3168;51.684;6.954;2023-07-31T11:00:26;2.30;;;2.20;;
6269;SDS011;3168;51.684;6.954;2023-07-31T11:02:56;2.90;;;2.80;;
6269;SDS011;3168;51.684;6.954;2023-07-31T11:08:27;3.53;;;3.00;;
6269;SDS011;3168;51.684;6.954;2023-07-31T11:13:31;2.43;;;2.33;;
6269;SDS011;3168;51.684;6.954;2023-07-31T11:16:00;2.90;;;2.70;;
6269;SDS011;3168;51.684;6.954;2023-07-31T11:18:26;5.40;;;3.60;;
6269;SDS011;3168;51.684;6.954;2023-07-31T11:20:52;2.70;;;2.60;;
6269;SDS011;3168;51.684;6.954;2023-07-31T11:23:18;3.47;;;3.17;;
6269;SDS011;3168;51.684;6.954;2023-07-31T11:25:44;3.00;;;2.80;;
6269;SDS011;3168;51.684;6.954;2023-07-31T11:28:10;5.50;;;2.60;;
6269;SDS011;3168;51.684;6.954;2023-07-31T11:30:36;2.50;;;2.40;;
6269;SDS011;3168;51.684;6.954;2023-07-31T11:33:02;6.10;;;2.20;;
6269;SDS011;3168;51.684;6.954;2023-07-31T11:35:27;2.50;;;2.40;;
6269;SDS011;3168;51.684;6.954;2023-07-31T11:37:53;2.70;;;2.60;;
6269;SDS011;3168;51.684;6.954;2023-07-31T11:40:19;2.60;;;2.50;;
6269;SDS011;3168;51.684;6.954;2023-07-31T11:42:45;2.73;;;2.50;;
6269;SDS011;3168;51.684;6.954;2023-07-31T11:45:11;1.67;;;1.60;;
6269;SDS011;3168;51.684;6.954;2023-07-31T11:47:37;4.73;;;2.90;;
6269;SDS011;3168;51.684;6.954;2023-07-31T11:50:04;2.37;;;2.30;;
6269;SDS011;3168;51.684;6.954;2023-07-31T11:52:30;3.13;;;2.10;;
6269;SDS011;3168;51.684;6.954;2023-07-31T11:54:56;2.20;;;2.10;;
6269;SDS011;3168;51.684;6.954;2023-07-31T11:57:21;2.60;;;2.33;;
6269;SDS011;3168;51.684;6.954;2023-07-31T11:59:47;3.23;;;2.70;;
6269;SDS011;3168;51.684;6.954;2023-07-31T12:02:13;8.27;;;3.07;;
6269;SDS011;3168;51.684;6.954;2023-07-31T12:04:39;2.10;;;2.00;;
6269;SDS011;3168;51.684;6.954;2023-07-31T12:07:05;4.97;;;2.20;;
6269;SDS011;3168;51.684;6.954;2023-07-31T12:09:31;1.80;;;1.50;;
6269;SDS011;3168;51.684;6.954;2023-07-31T12:11:57;2.33;;;2.07;;
6269;SDS011;3168;51.684;6.954;2023-07-31T12:14:24;1.83;;;1.50;;
6269;SDS011;3168;51.684;6.954;2023-07-31T12:17:03;1.73;;;1.60;;
6269;SDS011;3168;51.684;6.954;2023-07-31T12:19:29;2.10;;;2.00;;
6269;SDS011;3168;51.684;6.954;2023-07-31T12:21:56;2.17;;;2.07;;
6269;SDS011;3168;51.684;6.954;2023-07-31T12:24:22;2.07;;;1.87;;
6269;SDS011;3168;51.684;6.954;2023-07-31T12:26:48;2.30;;;2.20;;
6269;SDS011;3168;51.684;6.954;2023-07-31T12:29:13;1.43;;;1.43;;
6269;SDS011;3168;51.684;6.954;2023-07-31T12:31:40;2.50;;;2.23;;
6269;SDS011;3168;51.684;6.954;2023-07-31T12:34:14;2.80;;;1.87;;
6269;SDS011;3168;51.684;6.954;2023-07-31T12:36:31;1.80;;;1.70;;
6269;SDS011;3168;51.684;6.954;2023-07-31T12:38:57;1.30;;;1.30;;
6269;SDS011;3168;51.684;6.954;2023-07-31T12:41:22;2.27;;;2.17;;
6269;SDS011;3168;51.684;6.954;2023-07-31T12:43:48;1.60;;;1.60;;
6269;SDS011;3168;51.684;6.954;2023-07-31T12:46:14;3.13;;;1.83;;
6269;SDS011;3168;51.684;6.954;2023-07-31T12:48:40;2.63;;;1.67;;
6269;SDS011;3168;51.684;6.954;2023-07-31T12:51:06;2.77;;;2.47;;
6269;SDS011;3168;51.684;6.954;2023-07-31T12:53:32;3.35;;;2.00;;
6269;SDS011;3168;51.684;6.954;2023-07-31T12:55:58;2.23;;;2.03;;
6269;SDS011;3168;51.684;6.954;2023-07-31T12:58:24;2.73;;;1.80;;
6269;SDS011;3168;51.684;6.954;2023-07-31T13:00:51;3.33;;;1.37;;
6269;SDS011;3168;51.684;6.954;2023-07-31T13:03:17;2.20;;;2.10;;
6269;SDS011;3168;51.684;6.954;2023-07-31T13:05:42;1.63;;;1.53;;
6269;SDS011;3168;51.684;6.954;2023-07-31T13:08:08;1.73;;;1.70;;
6269;SDS011;3168;51.684;6.954;2023-07-31T13:10:34;1.37;;;1.37;;
6269;SDS011;3168;51.684;6.954;2023-07-31T13:13:00;2.50;;;2.30;;
6269;SDS011;3168;51.684;6.954;2023-07-31T13:15:26;1.40;;;1.37;;
6269;SDS011;3168;51.684;6.954;2023-07-31T13:17:52;1.90;;;1.80;;
6269;SDS011;3168;51.684;6.954;2023-07-31T13:20:18;7.03;;;1.93;;
6269;SDS011;3168;51.684;6.954;2023-07-31T13:22:43;3.93;;;2.00;;
6269;SDS011;3168;51.684;6.954;2023-07-31T13:25:09;1.93;;;1.73;;
6269;SDS011;3168;51.684;6.954;2023-07-31T13:27:35;2.20;;;1.77;;
6269;SDS011;3168;51.684;6.954;2023-07-31T13:30:01;3.00;;;2.43;;
6269;SDS011;3168;51.684;6.954;2023-07-31T13:32:27;1.97;;;1.87;;
6269;SDS011;3168;51.684;6.954;2023-07-31T13:34:53;2.73;;;2.50;;
6269;SDS011;3168;51.684;6.954;2023-07-31T13:37:20;2.23;;;2.13;;
6269;SDS011;3168;51.684;6.954;2023-07-31T13:39:45;3.73;;;1.93;;
6269;SDS011;3168;51.684;6.954;2023-07-31T13:42:11;6.10;;;1.90;;
6269;SDS011;3168;51.684;6.954;2023-07-31T13:44:38;2.33;;;2.10;;
6269;SDS011;3168;51.684;6.954;2023-07-31T13:47:04;1.83;;;1.73;;
6269;SDS011;3168;51.684;6.954;2023-07-31T13:49:30;1.90;;;1.80;;
6269;SDS011;3168;51.684;6.954;2023-07-31T13:51:56;4.83;;;2.17;;
6269;SDS011;3168;51.684;6.954;2023-07-31T13:54:22;2.50;;;2.40;;
6269;SDS011;3168;51.684;6.954;2023-07-31T13:56:48;2.67;;;2.57;;
6269;SDS011;3168;51.684;6.954;2023-07-31T13:59:14;2.67;;;2.57;;
6269;SDS011;3168;51.684;6.954;2023-07-31T14:01:39;3.63;;;2.40;;
6269;SDS011;3168;51.684;6.954;2023-07-31T14:04:05;2.10;;;2.00;;
6269;SDS011;3168;51.684;6.954;2023-07-31T14:06:31;2.10;;;2.00;;
6269;SDS011;3168;51.684;6.954;2023-07-31T14:08:57;2.10;;;2.00;;
6269;SDS011;3168;51.684;6.954;2023-07-31T14:11:22;3.10;;;1.80;;
6269;SDS011;3168;51.684;6.954;2023-07-31T14:13:49;3.03;;;1.93;;
6269;SDS011;3168;51.684;6.954;2023-07-31T14:16:14;2.30;;;2.10;;
6269;SDS011;3168;51.684;6.954;2023-07-31T14:18:40;2.17;;;2.03;;
6269;SDS011;3168;51.684;6.954;2023-07-31T14:21:06;2.80;;;2.70;;
6269;SDS011;3168;51.684;6.954;2023-07-31T14:23:32;2.27;;;2.00;;
6269;SDS011;3168;51.684;6.954;2023-07-31T14:25:57;5.03;;;2.10;;
6269;SDS011;3168;51.684;6.954;2023-07-31T14:28:24;4.30;;;2.80;;
6269;SDS011;3168;51.684;6.954;2023-07-31T14:30:50;2.33;;;2.17;;
6269;SDS011;3168;51.684;6.954;2023-07-31T14:33:15;2.13;;;2.03;;
6269;SDS011;3168;51.684;6.954;2023-07-31T14:35:41;2.40;;;2.30;;
6269;SDS011;3168;51.684;6.954;2023-07-31T14:38:07;2.63;;;2.40;;
6269;SDS011;3168;51.684;6.954;2023-07-31T14:40:32;1.70;;;1.60;;
6269;SDS011;3168;51.684;6.954;2023-07-31T14:42:58;3.07;;;2.30;;
6269;SDS011;3168;51.684;6.954;2023-07-31T14:45:24;2.30;;;2.10;;
6269;SDS011;3168;51.684;6.954;2023-07-31T14:47:50;5.73;;;2.87;;
6269;SDS011;3168;51.684;6.954;2023-07-31T14:50:17;4.13;;;2.17;;
6269;SDS011;3168;51.684;6.954;2023-07-31T14:52:42;2.53;;;2.43;;
6269;SDS011;3168;51.684;6.954;2023-07-31T14:55:08;2.07;;;2.00;;
6269;SDS011;3168;51.684;6.954;2023-07-31T14:57:34;2.47;;;2.27;;
6269;SDS011;3168;51.684;6.954;2023-07-31T15:00:00;4.33;;;1.93;;
6269;SDS011;3168;51.684;6.954;2023-07-31T15:02:26;3.63;;;2.17;;
6269;SDS011;3168;51.684;6.954;2023-07-31T15:04:51;2.20;;;2.10;;
6269;SDS011;3168;51.684;6.954;2023-07-31T15:07:17;2.53;;;2.43;;
6269;SDS011;3168;51.684;6.954;2023-07-31T15:09:43;6.50;;;3.70;;
6269;SDS011;3168;51.684;6.954;2023-07-31T15:12:09;5.27;;;3.17;;
6269;SDS011;3168;51.684;6.954;2023-07-31T15:14:35;2.40;;;2.20;;
6269;SDS011;3168;51.684;6.954;2023-07-31T15:17:00;2.67;;;2.47;;